Time;durP1;ratioP1;P1;durP2;ratioP2;P2;SDS_P1;SDS_P2;PMS_P1;PMS_P2;Temp;Humidity;BMP_temperature;BMP_pressure;BME280_temperature;BME280_humidity;BME280_pressure;Samples;Min_cycle;Max_cycle;Signal;HPM_P1;HPM_P2
2024/01/31 06:00:18;;;;;;;18.00;13.43;;;;;;;;;;1733959;28;20556;-77
2024/01/31 06:01:09;;;;;;;18.45;14.30;;;;;;;;;;1729912;28;20203;-77
2024/01/31 06:02:00;;;;;;;11.05;9.93;;;;;;;;;;1731164;28;20216;-77
2024/01/31 06:02:52;;;;;;;9.85;8.60;;;;;;;;;;1730444;28;20626;-77
2024/01/31 06:03:43;;;;;;;9.00;8.10;;;;;;;;;;1727005;28;20207;-77
2024/01/31 06:04:34;;;;;;;17.38;12.40;;;;;;;;;;1732059;28;20730;-77
2024/01/31 06:05:26;;;;;;;22.13;16.50;;;;;;;;;;1734085;28;20290;-77
2024/01/31 06:06:17;;;;;;;33.75;22.30;;;;;;;;;;1735208;28;20196;-77
2024/01/31 06:07:10;;;;;;;40.50;26.38;;;;;;;;;;1733936;28;20271;-78
2024/01/31 06:08:02;;;;;;;39.30;26.67;;;;;;;;;;1734082;28;20649;-78
2024/01/31 06:08:53;;;;;;;33.05;23.90;;;;;;;;;;1734080;28;20199;-77
2024/01/31 06:09:46;;;;;;;38.78;26.33;;;;;;;;;;1734014;28;20205;-78
2024/01/31 06:10:37;;;;;;;36.67;26.73;;;;;;;;;;1733989;28;20570;-78
2024/01/31 06:11:29;;;;;;;39.92;27.13;;;;;;;;;;1733708;28;20199;-76
2024/01/31 06:12:20;;;;;;;41.05;27.30;;;;;;;;;;1734091;28;20200;-77
2024/01/31 06:13:12;;;;;;;36.65;26.90;;;;;;;;;;1734063;28;20199;-77
2024/01/31 06:14:03;;;;;;;32.20;24.50;;;;;;;;;;1734009;28;20227;-77
2024/01/31 06:14:54;;;;;;;23.75;18.83;;;;;;;;;;1733908;28;20210;-77
2024/01/31 06:15:47;;;;;;;24.25;18.23;;;;;;;;;;1732691;28;20227;-77
2024/01/31 06:16:38;;;;;;;21.38;14.85;;;;;;;;;;1733817;28;20677;-77
2024/01/31 06:17:29;;;;;;;17.83;13.73;;;;;;;;;;1734182;28;20208;-77
2024/01/31 06:18:22;;;;;;;12.20;10.90;;;;;;;;;;1734034;28;20281;-77
2024/01/31 06:19:13;;;;;;;10.70;9.60;;;;;;;;;;1733920;28;20623;-77
2024/01/31 06:20:05;;;;;;;14.07;10.23;;;;;;;;;;1733997;28;20215;-78
2024/01/31 06:20:58;;;;;;;10.65;9.55;;;;;;;;;;1733871;28;20310;-78
2024/01/31 06:21:49;;;;;;;11.07;9.10;;;;;;;;;;1733955;28;20275;-77
2024/01/31 06:22:40;;;;;;;10.07;9.07;;;;;;;;;;1735077;28;20588;-78
2024/01/31 06:23:32;;;;;;;8.63;7.72;;;;;;;;;;1735361;28;20250;-76
2024/01/31 06:24:24;;;;;;;8.40;7.47;;;;;;;;;;1735390;28;20211;-77
2024/01/31 06:25:16;;;;;;;8.98;6.63;;;;;;;;;;1735494;28;20198;-76
2024/01/31 06:26:07;;;;;;;7.30;6.60;;;;;;;;;;1735358;28;20302;-77
2024/01/31 06:26:59;;;;;;;6.18;5.57;;;;;;;;;;1735378;28;20215;-78
2024/01/31 06:27:50;;;;;;;6.68;5.97;;;;;;;;;;1735370;28;20203;-78
2024/01/31 06:28:42;;;;;;;8.80;6.40;;;;;;;;;;1735346;28;20265;-76
2024/01/31 06:29:33;;;;;;;6.65;5.95;;;;;;;;;;1735342;28;20211;-77
2024/01/31 06:30:31;;;;;;;9.07;6.57;;;;;;;;;;1735031;28;20192;-77
2024/01/31 06:31:28;;;;;;;6.57;5.97;;;;;;;;;;1735011;28;20290;-76
2024/01/31 06:32:22;;;;;;;8.68;5.75;;;;;;;;;;1728583;28;20188;-77
2024/01/31 06:33:14;;;;;;;7.82;6.65;;;;;;;;;;1728534;28;20235;-77
2024/01/31 06:34:07;;;;;;;7.05;6.38;;;;;;;;;;1734445;28;20231;-77
2024/01/31 06:34:58;;;;;;;6.93;6.32;;;;;;;;;;1735372;28;20200;-77
2024/01/31 06:35:49;;;;;;;6.60;6.00;;;;;;;;;;1735296;28;20266;-76
2024/01/31 06:36:41;;;;;;;8.50;7.03;;;;;;;;;;1735195;28;20576;-77
2024/01/31 06:37:32;;;;;;;7.88;7.13;;;;;;;;;;1735260;28;20214;-77
2024/01/31 06:38:23;;;;;;;7.85;7.05;;;;;;;;;;1735021;28;20223;-77
2024/01/31 06:39:15;;;;;;;8.43;7.13;;;;;;;;;;1735341;28;20606;-77
2024/01/31 06:40:08;;;;;;;7.63;6.90;;;;;;;;;;1735120;28;20226;-77
2024/01/31 06:40:59;;;;;;;9.20;7.00;;;;;;;;;;1734899;28;20255;-77
2024/01/31 06:41:51;;;;;;;7.60;6.70;;;;;;;;;;1735329;28;20223;-77
2024/01/31 06:42:45;;;;;;;8.93;6.03;;;;;;;;;;1735051;28;20241;-77
2024/01/31 06:43:36;;;;;;;7.10;6.50;;;;;;;;;;1735283;28;20204;-77
2024/01/31 06:44:28;;;;;;;7.88;7.15;;;;;;;;;;1731072;28;20203;-77
2024/01/31 06:45:19;;;;;;;7.32;6.65;;;;;;;;;;1732680;28;20207;-77
2024/01/31 06:46:10;;;;;;;8.05;6.90;;;;;;;;;;1735368;28;20742;-77
2024/01/31 06:47:05;;;;;;;8.02;7.22;;;;;;;;;;1734979;28;20625;-77
2024/01/31 06:47:56;;;;;;;7.57;6.80;;;;;;;;;;1735327;28;20204;-78
2024/01/31 06:48:47;;;;;;;6.78;6.00;;;;;;;;;;1735240;28;20278;-78
2024/01/31 06:49:39;;;;;;;7.28;6.57;;;;;;;;;;1735273;28;20210;-78
2024/01/31 06:50:30;;;;;;;9.15;7.45;;;;;;;;;;1734969;28;20698;-78
2024/01/31 06:51:21;;;;;;;7.50;6.80;;;;;;;;;;1728042;28;20211;-79
2024/01/31 06:52:13;;;;;;;8.55;6.88;;;;;;;;;;1728720;28;20192;-78
2024/01/31 06:53:04;;;;;;;8.70;7.88;;;;;;;;;;1735218;28;20584;-78
2024/01/31 06:53:58;;;;;;;8.23;7.35;;;;;;;;;;1735276;28;20192;-79
2024/01/31 06:54:50;;;;;;;9.00;7.78;;;;;;;;;;1734877;28;20200;-78
2024/01/31 06:55:42;;;;;;;10.25;9.25;;;;;;;;;;1735194;28;20223;-80
2024/01/31 06:56:33;;;;;;;12.98;10.75;;;;;;;;;;1735179;28;20207;-77
2024/01/31 06:57:25;;;;;;;11.77;9.48;;;;;;;;;;1735194;28;20318;-76
2024/01/31 06:58:16;;;;;;;10.50;9.43;;;;;;;;;;1735213;28;20211;-76
2024/01/31 06:59:08;;;;;;;9.05;8.10;;;;;;;;;;1734949;28;20192;-78
2024/01/31 07:00:00;;;;;;;10.32;8.45;;;;;;;;;;1735232;28;20739;-78
2024/01/31 07:00:55;;;;;;;10.25;8.45;;;;;;;;;;1735138;28;20212;-77
2024/01/31 07:01:47;;;;;;;10.00;8.35;;;;;;;;;;1735289;28;20679;-79
2024/01/31 07:02:39;;;;;;;10.43;9.18;;;;;;;;;;1736205;28;20227;-81
2024/01/31 07:03:31;;;;;;;8.55;7.70;;;;;;;;;;1735316;28;20215;-78
2024/01/31 07:04:23;;;;;;;9.35;8.45;;;;;;;;;;1734374;28;20204;-80
2024/01/31 07:05:14;;;;;;;7.93;7.13;;;;;;;;;;1734464;28;20196;-79
2024/01/31 07:06:06;;;;;;;8.13;7.32;;;;;;;;;;1734811;28;20207;-78
2024/01/31 07:06:57;;;;;;;7.00;6.30;;;;;;;;;;1734991;28;20251;-78
2024/01/31 07:07:50;;;;;;;7.82;6.55;;;;;;;;;;1735103;28;20459;-78
2024/01/31 07:08:42;;;;;;;6.88;6.22;;;;;;;;;;1735017;28;20200;-79
2024/01/31 07:09:33;;;;;;;8.20;7.05;;;;;;;;;;1735061;28;20207;-78
2024/01/31 07:10:24;;;;;;;7.38;6.68;;;;;;;;;;1728208;28;20207;-77
2024/01/31 07:11:16;;;;;;;7.93;7.13;;;;;;;;;;1727495;28;20200;-78
2024/01/31 07:12:08;;;;;;;9.27;7.07;;;;;;;;;;1733655;28;20353;-78
2024/01/31 07:13:00;;;;;;;7.93;6.97;;;;;;;;;;1735056;28;20577;-78
2024/01/31 07:13:51;;;;;;;6.93;6.20;;;;;;;;;;1734940;28;20200;-78
2024/01/31 07:14:43;;;;;;;7.40;6.65;;;;;;;;;;1735053;28;20226;-79
2024/01/31 07:15:34;;;;;;;8.20;7.40;;;;;;;;;;1735787;28;20722;-80
2024/01/31 07:16:26;;;;;;;7.68;6.88;;;;;;;;;;1739048;28;20206;-82
2024/01/31 07:17:17;;;;;;;7.85;7.15;;;;;;;;;;1735652;28;20609;-83
2024/01/31 07:18:10;;;;;;;9.05;6.68;;;;;;;;;;1735402;28;20629;-80
2024/01/31 07:19:02;;;;;;;7.80;7.00;;;;;;;;;;1735641;28;20214;-81
2024/01/31 07:19:53;;;;;;;8.27;7.20;;;;;;;;;;1734877;28;20204;-80
2024/01/31 07:20:45;;;;;;;7.78;6.97;;;;;;;;;;1735469;28;20207;-80
2024/01/31 07:21:37;;;;;;;7.78;6.97;;;;;;;;;;1735038;28;20204;-80
2024/01/31 07:22:28;;;;;;;7.35;6.65;;;;;;;;;;1736059;28;20215;-80
2024/01/31 07:23:19;;;;;;;8.00;6.22;;;;;;;;;;1735761;28;20204;-80
2024/01/31 07:24:11;;;;;;;8.65;6.75;;;;;;;;;;1734899;28;20215;-80
2024/01/31 07:25:03;;;;;;;7.65;6.70;;;;;;;;;;1735305;28;20203;-80
2024/01/31 07:25:55;;;;;;;8.10;7.35;;;;;;;;;;1735427;28;20299;-81
2024/01/31 07:26:46;;;;;;;7.68;6.97;;;;;;;;;;1735396;28;20218;-76
2024/01/31 07:27:41;;;;;;;8.52;7.20;;;;;;;;;;1734932;28;20200;-81
2024/01/31 07:28:36;;;;;;;8.68;7.20;;;;;;;;;;1735018;28;20207;-79
2024/01/31 07:29:28;;;;;;;8.93;7.28;;;;;;;;;;1728235;28;20197;-78
2024/01/31 07:30:19;;;;;;;8.43;7.63;;;;;;;;;;1730313;28;20200;-79
2024/01/31 07:31:10;;;;;;;8.05;7.25;;;;;;;;;;1734274;28;20266;-79
2024/01/31 07:32:02;;;;;;;10.88;8.23;;;;;;;;;;1734833;28;20661;-78
2024/01/31 07:32:53;;;;;;;10.60;8.32;;;;;;;;;;1734692;28;20344;-78
2024/01/31 07:33:46;;;;;;;10.20;8.40;;;;;;;;;;1733888;28;20208;-77
2024/01/31 07:34:37;;;;;;;9.60;8.63;;;;;;;;;;1734571;28;20304;-80
2024/01/31 07:35:30;;;;;;;9.23;8.32;;;;;;;;;;1734786;28;20547;-78
2024/01/31 07:36:21;;;;;;;9.80;8.82;;;;;;;;;;1734954;28;20219;-79
2024/01/31 07:37:12;;;;;;;9.30;8.43;;;;;;;;;;1734849;28;20227;-79
2024/01/31 07:38:04;;;;;;;9.23;8.32;;;;;;;;;;1734850;28;20669;-78
2024/01/31 07:38:55;;;;;;;9.45;8.63;;;;;;;;;;1734908;28;20214;-78
2024/01/31 07:39:47;;;;;;;10.80;9.13;;;;;;;;;;1734759;28;20200;-78
2024/01/31 07:40:39;;;;;;;8.90;8.10;;;;;;;;;;1734872;28;20215;-79
2024/01/31 07:41:31;;;;;;;10.20;9.18;;;;;;;;;;1734065;28;20243;-78
2024/01/31 07:42:22;;;;;;;11.07;9.98;;;;;;;;;;1734878;28;20632;-78
2024/01/31 07:43:14;;;;;;;10.40;9.10;;;;;;;;;;1734781;28;20196;-79
2024/01/31 07:44:05;;;;;;;9.90;8.90;;;;;;;;;;1734732;28;20691;-78
2024/01/31 07:44:57;;;;;;;9.88;8.88;;;;;;;;;;1734671;28;20254;-79
2024/01/31 07:45:48;;;;;;;9.85;8.85;;;;;;;;;;1734737;28;20257;-78
2024/01/31 07:46:39;;;;;;;10.43;8.77;;;;;;;;;;1734831;28;20282;-78
2024/01/31 07:47:31;;;;;;;10.52;8.77;;;;;;;;;;1734768;28;20250;-79
2024/01/31 07:48:22;;;;;;;10.13;9.18;;;;;;;;;;1734876;28;20669;-78
2024/01/31 07:49:16;;;;;;;8.57;7.78;;;;;;;;;;1734937;28;20206;-79
2024/01/31 07:50:07;;;;;;;9.75;8.75;;;;;;;;;;1734710;28;20200;-78
2024/01/31 07:50:58;;;;;;;10.18;9.27;;;;;;;;;;1734135;28;20208;-82
2024/01/31 07:51:56;;;;;;;9.95;8.88;;;;;;;;;;1734750;28;20200;-78
2024/01/31 07:52:47;;;;;;;9.30;8.35;;;;;;;;;;1734914;28;20661;-78
2024/01/31 07:53:39;;;;;;;10.95;8.90;;;;;;;;;;1734670;28;20199;-78
2024/01/31 07:54:31;;;;;;;9.80;8.15;;;;;;;;;;1734849;28;20199;-79
2024/01/31 07:55:22;;;;;;;8.88;7.90;;;;;;;;;;1734602;28;20204;-80
2024/01/31 07:56:14;;;;;;;14.98;8.43;;;;;;;;;;1734865;28;20278;-78
2024/01/31 07:57:05;;;;;;;9.90;9.00;;;;;;;;;;1734724;28;20222;-78
2024/01/31 07:57:57;;;;;;;11.63;8.70;;;;;;;;;;1734798;28;20258;-79
2024/01/31 07:58:48;;;;;;;9.60;8.60;;;;;;;;;;1734780;28;20199;-79
2024/01/31 07:59:39;;;;;;;13.93;8.55;;;;;;;;;;1735970;28;20262;-78
2024/01/31 08:00:31;;;;;;;9.85;8.80;;;;;;;;;;1736292;28;20212;-78
2024/01/31 08:01:22;;;;;;;9.15;8.25;;;;;;;;;;1735227;28;20623;-78
2024/01/31 08:02:13;;;;;;;9.75;8.85;;;;;;;;;;1735961;28;20204;-78
2024/01/31 08:03:06;;;;;;;8.80;7.95;;;;;;;;;;1735717;28;20301;-79
2024/01/31 08:03:57;;;;;;;13.13;9.23;;;;;;;;;;1735662;28;20212;-78
2024/01/31 08:04:51;;;;;;;9.15;8.25;;;;;;;;;;1735773;28;20630;-77
2024/01/31 08:05:43;;;;;;;9.63;8.63;;;;;;;;;;1728920;28;20220;-78
2024/01/31 08:06:35;;;;;;;9.60;8.55;;;;;;;;;;1729820;28;20474;-79
2024/01/31 08:07:26;;;;;;;9.10;8.30;;;;;;;;;;1735328;28;20295;-80
2024/01/31 08:08:18;;;;;;;10.73;8.50;;;;;;;;;;1736210;28;20200;-79
2024/01/31 08:09:09;;;;;;;11.52;8.95;;;;;;;;;;1738368;28;20216;-82
2024/01/31 08:10:00;;;;;;;11.25;9.43;;;;;;;;;;1739583;28;20203;-80
2024/01/31 08:10:52;;;;;;;11.60;8.68;;;;;;;;;;1739675;28;20209;-81
2024/01/31 08:11:44;;;;;;;9.02;8.10;;;;;;;;;;1738624;28;20204;-80
2024/01/31 08:12:35;;;;;;;10.13;9.00;;;;;;;;;;1739929;28;20199;-81
2024/01/31 08:13:28;;;;;;;10.38;9.40;;;;;;;;;;1739102;28;20200;-80
2024/01/31 08:14:19;;;;;;;9.75;8.75;;;;;;;;;;1739440;28;20219;-82
2024/01/31 08:15:11;;;;;;;9.43;8.40;;;;;;;;;;1731065;28;20291;-80
2024/01/31 08:16:02;;;;;;;9.80;8.77;;;;;;;;;;1735850;28;20195;-80
2024/01/31 08:16:53;;;;;;;9.25;8.38;;;;;;;;;;1736913;28;20664;-80
2024/01/31 08:17:46;;;;;;;8.98;8.15;;;;;;;;;;1738479;28;20222;-83
2024/01/31 08:18:37;;;;;;;9.18;8.30;;;;;;;;;;1738975;28;20212;-80
2024/01/31 08:19:28;;;;;;;11.10;8.23;;;;;;;;;;1739238;28;20214;-82
2024/01/31 08:20:22;;;;;;;11.32;8.70;;;;;;;;;;1739425;28;20204;-80
2024/01/31 08:21:13;;;;;;;9.55;8.43;;;;;;;;;;1738739;28;20208;-84
2024/01/31 08:22:04;;;;;;;10.23;7.70;;;;;;;;;;1738787;28;20210;-80
2024/01/31 08:22:56;;;;;;;9.88;8.27;;;;;;;;;;1738968;28;20247;-81
2024/01/31 08:23:47;;;;;;;8.95;8.05;;;;;;;;;;1739263;28;20200;-81
2024/01/31 08:24:38;;;;;;;9.80;7.90;;;;;;;;;;1739802;28;20204;-84
2024/01/31 08:25:30;;;;;;;9.95;8.40;;;;;;;;;;1739584;28;20196;-80
2024/01/31 08:26:22;;;;;;;8.90;8.00;;;;;;;;;;1739194;28;20570;-82
2024/01/31 08:27:13;;;;;;;10.45;9.15;;;;;;;;;;1738843;28;20303;-81
2024/01/31 08:28:05;;;;;;;7.97;7.30;;;;;;;;;;1738662;28;20767;-81
2024/01/31 08:28:56;;;;;;;8.40;7.55;;;;;;;;;;1738145;28;20214;-83
2024/01/31 08:29:47;;;;;;;9.02;7.80;;;;;;;;;;1737607;28;20192;-81
2024/01/31 08:30:40;;;;;;;10.70;8.13;;;;;;;;;;1738500;28;20215;-83
2024/01/31 08:31:31;;;;;;;8.88;7.97;;;;;;;;;;1736999;28;20196;-82
2024/01/31 08:32:23;;;;;;;9.35;8.43;;;;;;;;;;1737835;28;20226;-78
2024/01/31 08:33:14;;;;;;;8.85;7.95;;;;;;;;;;1734885;28;20199;-79
2024/01/31 08:34:05;;;;;;;8.63;7.82;;;;;;;;;;1734463;28;20207;-79
2024/01/31 08:34:57;;;;;;;9.95;8.50;;;;;;;;;;1734647;28;20294;-79
2024/01/31 08:35:49;;;;;;;9.20;8.30;;;;;;;;;;1734959;28;20219;-79
2024/01/31 08:36:42;;;;;;;8.52;7.57;;;;;;;;;;1734936;28;20204;-80
2024/01/31 08:37:33;;;;;;;10.15;8.85;;;;;;;;;;1734854;28;20207;-78
2024/01/31 08:38:25;;;;;;;9.38;8.35;;;;;;;;;;1734700;28;20199;-78
2024/01/31 08:39:16;;;;;;;9.15;8.32;;;;;;;;;;1734724;28;20207;-78
2024/01/31 08:40:10;;;;;;;9.30;8.30;;;;;;;;;;1734203;28;20206;-79
2024/01/31 08:41:02;;;;;;;10.15;8.52;;;;;;;;;;1733781;28;20196;-78
2024/01/31 08:41:53;;;;;;;9.75;8.68;;;;;;;;;;1734580;28;20204;-79
2024/01/31 08:42:44;;;;;;;9.32;8.43;;;;;;;;;;1734439;28;20254;-78
2024/01/31 08:43:36;;;;;;;9.20;8.30;;;;;;;;;;1734477;28;20574;-78
2024/01/31 08:44:27;;;;;;;10.80;9.57;;;;;;;;;;1734557;28;20200;-78
2024/01/31 08:45:19;;;;;;;9.88;8.88;;;;;;;;;;1734028;28;20200;-78
2024/01/31 08:46:11;;;;;;;12.02;9.20;;;;;;;;;;1734693;28;20605;-76
2024/01/31 08:47:03;;;;;;;11.00;9.90;;;;;;;;;;1734607;28;20224;-79
2024/01/31 08:47:54;;;;;;;12.05;10.90;;;;;;;;;;1734622;28;20566;-78
2024/01/31 08:48:46;;;;;;;12.77;11.57;;;;;;;;;;1734438;28;20224;-77
2024/01/31 08:49:38;;;;;;;10.68;9.57;;;;;;;;;;1734433;28;20692;-78
2024/01/31 08:50:30;;;;;;;10.85;9.73;;;;;;;;;;1734552;28;20226;-78
2024/01/31 08:51:22;;;;;;;12.65;11.45;;;;;;;;;;1733606;28;20207;-78
2024/01/31 08:52:14;;;;;;;11.52;10.32;;;;;;;;;;1734525;28;20204;-79
2024/01/31 08:53:05;;;;;;;10.70;9.32;;;;;;;;;;1734467;28;20204;-78
2024/01/31 08:53:57;;;;;;;10.73;9.63;;;;;;;;;;1734413;28;20246;-78
2024/01/31 08:54:48;;;;;;;11.05;9.93;;;;;;;;;;1734027;28;20204;-78
2024/01/31 08:55:40;;;;;;;9.68;8.77;;;;;;;;;;1734410;28;20257;-78
2024/01/31 08:56:31;;;;;;;9.40;8.50;;;;;;;;;;1734269;28;20215;-78
2024/01/31 08:57:24;;;;;;;13.35;10.00;;;;;;;;;;1734130;28;20200;-78
2024/01/31 08:58:15;;;;;;;14.43;9.82;;;;;;;;;;1734420;28;20208;-80
2024/01/31 08:59:07;;;;;;;12.13;10.23;;;;;;;;;;1734354;28;20257;-77
2024/01/31 08:59:58;;;;;;;11.63;9.45;;;;;;;;;;1734391;28;20211;-78
2024/01/31 09:00:49;;;;;;;11.40;10.20;;;;;;;;;;1734309;28;20621;-78
2024/01/31 09:01:44;;;;;;;18.08;10.82;;;;;;;;;;1726803;28;20210;-77
2024/01/31 09:02:35;;;;;;;13.13;10.75;;;;;;;;;;1732772;28;20550;-77
2024/01/31 09:03:27;;;;;;;11.95;10.55;;;;;;;;;;1734400;28;20656;-78
2024/01/31 09:04:18;;;;;;;12.63;10.80;;;;;;;;;;1734397;28;20211;-78
2024/01/31 09:05:10;;;;;;;12.30;10.68;;;;;;;;;;1734359;28;20202;-78
2024/01/31 09:06:02;;;;;;;13.90;10.10;;;;;;;;;;1733662;28;20192;-78
2024/01/31 09:06:55;;;;;;;13.95;10.50;;;;;;;;;;1734359;28;20223;-77
2024/01/31 09:07:47;;;;;;;11.73;9.88;;;;;;;;;;1734249;28;20680;-77
2024/01/31 09:08:39;;;;;;;11.73;10.43;;;;;;;;;;1734319;28;20555;-77
2024/01/31 09:09:31;;;;;;;10.40;9.40;;;;;;;;;;1734275;28;20231;-77
2024/01/31 09:10:25;;;;;;;17.70;10.90;;;;;;;;;;1734281;28;20618;-77
2024/01/31 09:11:16;;;;;;;11.68;10.18;;;;;;;;;;1733629;28;20257;-77
2024/01/31 09:12:09;;;;;;;10.30;9.25;;;;;;;;;;1734233;28;20660;-77
2024/01/31 09:13:00;;;;;;;12.15;9.40;;;;;;;;;;1734380;28;20211;-78
2024/01/31 09:13:51;;;;;;;11.45;10.25;;;;;;;;;;1734146;28;20203;-77
2024/01/31 09:14:43;;;;;;;12.30;10.70;;;;;;;;;;1734348;28;20685;-77
2024/01/31 09:15:34;;;;;;;11.90;10.48;;;;;;;;;;1734223;28;20227;-77
2024/01/31 09:16:25;;;;;;;12.38;10.43;;;;;;;;;;1734344;28;20510;-78
2024/01/31 09:17:17;;;;;;;11.13;10.02;;;;;;;;;;1734157;28;20231;-77
2024/01/31 09:18:08;;;;;;;11.10;9.98;;;;;;;;;;1734180;28;20207;-77
2024/01/31 09:19:00;;;;;;;13.07;10.18;;;;;;;;;;1734056;28;20211;-79
2024/01/31 09:19:52;;;;;;;11.82;9.25;;;;;;;;;;1733970;28;20200;-77
2024/01/31 09:20:44;;;;;;;10.85;9.75;;;;;;;;;;1734306;28;20585;-78
2024/01/31 09:21:35;;;;;;;11.38;10.18;;;;;;;;;;1733381;28;20199;-78
2024/01/31 09:22:28;;;;;;;11.13;9.48;;;;;;;;;;1734269;28;20224;-78
2024/01/31 09:23:19;;;;;;;11.82;10.43;;;;;;;;;;1734107;28;20235;-78
2024/01/31 09:24:10;;;;;;;13.68;10.98;;;;;;;;;;1734333;28;20207;-77
2024/01/31 09:25:03;;;;;;;13.45;11.02;;;;;;;;;;1734204;28;20192;-78
2024/01/31 09:25:54;;;;;;;11.75;10.60;;;;;;;;;;1734260;28;20204;-78
2024/01/31 09:26:45;;;;;;;11.82;10.25;;;;;;;;;;1734094;28;20206;-77
2024/01/31 09:27:37;;;;;;;10.73;9.50;;;;;;;;;;1734119;28;20207;-77
2024/01/31 09:28:28;;;;;;;11.35;10.20;;;;;;;;;;1734273;28;20204;-77
2024/01/31 09:29:21;;;;;;;12.52;10.65;;;;;;;;;;1734244;28;20207;-78
2024/01/31 09:30:12;;;;;;;11.18;10.07;;;;;;;;;;1734216;28;20207;-78
2024/01/31 09:31:03;;;;;;;11.82;10.57;;;;;;;;;;1733469;28;20327;-77
2024/01/31 09:31:55;;;;;;;12.60;10.48;;;;;;;;;;1734145;28;20338;-78
2024/01/31 09:32:46;;;;;;;12.18;10.68;;;;;;;;;;1734132;28;20207;-77
2024/01/31 09:33:37;;;;;;;11.90;10.65;;;;;;;;;;1734061;28;20291;-78
2024/01/31 09:34:29;;;;;;;13.63;10.75;;;;;;;;;;1734197;28;20572;-78
2024/01/31 09:35:21;;;;;;;13.82;10.32;;;;;;;;;;1733798;28;20230;-77
2024/01/31 09:36:12;;;;;;;12.38;9.75;;;;;;;;;;1734142;28;20254;-78
2024/01/31 09:37:04;;;;;;;12.32;11.02;;;;;;;;;;1733902;28;20248;-77
2024/01/31 09:37:56;;;;;;;11.32;9.40;;;;;;;;;;1734103;28;20215;-78
2024/01/31 09:38:48;;;;;;;10.85;9.30;;;;;;;;;;1734085;28;20218;-78
2024/01/31 09:39:40;;;;;;;11.98;10.77;;;;;;;;;;1734157;28;20610;-77
2024/01/31 09:40:31;;;;;;;13.02;11.00;;;;;;;;;;1734159;28;20204;-77
2024/01/31 09:41:23;;;;;;;11.70;10.35;;;;;;;;;;1733308;28;20200;-78
2024/01/31 09:42:14;;;;;;;12.30;10.95;;;;;;;;;;1734159;28;20203;-76
2024/01/31 09:43:06;;;;;;;13.23;10.85;;;;;;;;;;1734079;28;20204;-78
2024/01/31 09:43:57;;;;;;;10.80;9.80;;;;;;;;;;1734096;28;20208;-77
2024/01/31 09:44:50;;;;;;;15.77;10.52;;;;;;;;;;1734134;28;20208;-78
2024/01/31 09:45:42;;;;;;;13.15;11.23;;;;;;;;;;1734077;28;20334;-78
2024/01/31 09:46:35;;;;;;;14.93;10.93;;;;;;;;;;1734133;28;20207;-77
2024/01/31 09:47:27;;;;;;;11.85;10.73;;;;;;;;;;1733971;28;20203;-78
2024/01/31 09:48:19;;;;;;;12.00;10.75;;;;;;;;;;1734154;28;20282;-77
2024/01/31 09:49:10;;;;;;;11.63;10.60;;;;;;;;;;1734132;28;20691;-77
2024/01/31 09:50:02;;;;;;;14.13;12.20;;;;;;;;;;1734066;28;20715;-79
2024/01/31 09:50:54;;;;;;;12.25;10.82;;;;;;;;;;1733659;28;20188;-77
2024/01/31 09:51:45;;;;;;;11.40;10.18;;;;;;;;;;1733698;28;20200;-77
2024/01/31 09:52:39;;;;;;;12.90;11.02;;;;;;;;;;1733962;28;20198;-77
2024/01/31 09:53:36;;;;;;;13.13;11.40;;;;;;;;;;1734004;28;20200;-78
2024/01/31 09:54:27;;;;;;;13.65;10.90;;;;;;;;;;1734268;28;20211;-78
2024/01/31 09:55:21;;;;;;;12.15;10.95;;;;;;;;;;1734005;28;20287;-79
2024/01/31 09:56:12;;;;;;;11.75;10.60;;;;;;;;;;1734114;28;20204;-78
2024/01/31 09:57:04;;;;;;;14.95;11.68;;;;;;;;;;1733286;28;20756;-78
2024/01/31 09:57:55;;;;;;;14.20;10.63;;;;;;;;;;1733971;28;20218;-77
2024/01/31 09:58:47;;;;;;;14.13;11.55;;;;;;;;;;1734069;28;20290;-77
2024/01/31 09:59:39;;;;;;;12.75;11.35;;;;;;;;;;1734059;28;20300;-79
2024/01/31 10:00:31;;;;;;;13.02;11.68;;;;;;;;;;1734053;28;20204;-78
2024/01/31 10:01:24;;;;;;;14.38;10.77;;;;;;;;;;1733270;28;20199;-79
2024/01/31 10:02:16;;;;;;;15.95;11.70;;;;;;;;;;1734110;28;20204;-78
2024/01/31 10:03:09;;;;;;;12.50;11.20;;;;;;;;;;1733986;28;20207;-78
2024/01/31 10:04:01;;;;;;;13.85;11.15;;;;;;;;;;1734050;28;20314;-78
2024/01/31 10:04:52;;;;;;;13.65;11.15;;;;;;;;;;1733756;28;20207;-78
2024/01/31 10:05:44;;;;;;;11.73;10.55;;;;;;;;;;1734030;28;20200;-78
2024/01/31 10:06:36;;;;;;;12.80;10.80;;;;;;;;;;1734110;28;20661;-78
2024/01/31 10:07:29;;;;;;;12.40;11.10;;;;;;;;;;1733643;28;20210;-77
2024/01/31 10:08:21;;;;;;;12.20;11.00;;;;;;;;;;1734006;28;20207;-78
2024/01/31 10:09:15;;;;;;;13.38;10.68;;;;;;;;;;1733679;28;20208;-78
2024/01/31 10:10:07;;;;;;;11.73;10.30;;;;;;;;;;1733910;28;20207;-78
2024/01/31 10:10:59;;;;;;;14.00;11.05;;;;;;;;;;1733647;28;20685;-78
2024/01/31 10:11:50;;;;;;;12.18;10.82;;;;;;;;;;1733897;28;20665;-78
2024/01/31 10:12:41;;;;;;;13.95;11.05;;;;;;;;;;1733983;28;20203;-78
2024/01/31 10:13:33;;;;;;;12.35;10.50;;;;;;;;;;1734009;28;20220;-78
2024/01/31 10:14:24;;;;;;;13.20;11.88;;;;;;;;;;1734061;28;20211;-78
2024/01/31 10:15:15;;;;;;;15.50;12.88;;;;;;;;;;1734026;28;20278;-78
2024/01/31 10:16:08;;;;;;;13.15;11.50;;;;;;;;;;1733927;28;20265;-78
2024/01/31 10:16:59;;;;;;;14.18;11.60;;;;;;;;;;1733851;28;20235;-78
2024/01/31 10:17:50;;;;;;;13.75;11.63;;;;;;;;;;1734004;28;20204;-79
2024/01/31 10:18:42;;;;;;;12.95;11.55;;;;;;;;;;1734006;28;20222;-78
2024/01/31 10:19:33;;;;;;;12.15;10.85;;;;;;;;;;1733991;28;20219;-78
2024/01/31 10:20:25;;;;;;;16.48;11.40;;;;;;;;;;1733989;28;20631;-79
2024/01/31 10:21:19;;;;;;;14.27;11.13;;;;;;;;;;1733299;28;20211;-78
2024/01/31 10:22:10;;;;;;;11.77;10.25;;;;;;;;;;1733991;28;20203;-79
2024/01/31 10:23:03;;;;;;;12.35;11.02;;;;;;;;;;1733720;28;20330;-78
2024/01/31 10:23:58;;;;;;;16.70;14.82;;;;;;;;;;1733815;28;20349;-78
2024/01/31 10:24:51;;;;;;;14.10;12.15;;;;;;;;;;1734203;28;20629;-80
2024/01/31 10:25:42;;;;;;;14.07;12.68;;;;;;;;;;1733991;28;20235;-82
2024/01/31 10:26:33;;;;;;;13.75;12.35;;;;;;;;;;1734250;28;20204;-80
2024/01/31 10:27:25;;;;;;;14.50;12.30;;;;;;;;;;1736520;28;20222;-83
2024/01/31 10:28:19;;;;;;;14.38;12.02;;;;;;;;;;1737335;28;20208;-83
2024/01/31 10:29:11;;;;;;;13.45;12.05;;;;;;;;;;1737361;28;20223;-83
2024/01/31 10:30:04;;;;;;;12.27;11.07;;;;;;;;;;1735268;28;20207;-82
2024/01/31 10:30:56;;;;;;;14.13;12.18;;;;;;;;;;1734709;28;20220;-82
2024/01/31 10:31:49;;;;;;;16.08;12.60;;;;;;;;;;1734917;28;20615;-81
2024/01/31 10:32:42;;;;;;;14.25;11.38;;;;;;;;;;1735513;28;20302;-82
2024/01/31 10:33:34;;;;;;;14.98;12.77;;;;;;;;;;1735916;28;20691;-82
2024/01/31 10:34:26;;;;;;;13.45;11.10;;;;;;;;;;1736804;28;20199;-82
2024/01/31 10:35:18;;;;;;;13.88;11.48;;;;;;;;;;1736258;28;20199;-81
2024/01/31 10:36:10;;;;;;;16.20;12.63;;;;;;;;;;1728089;28;20212;-82
2024/01/31 10:37:01;;;;;;;13.27;11.95;;;;;;;;;;1728490;28;20228;-81
2024/01/31 10:37:54;;;;;;;12.63;11.43;;;;;;;;;;1734044;28;20209;-82
2024/01/31 10:38:45;;;;;;;13.00;11.52;;;;;;;;;;1735221;28;20204;-82
2024/01/31 10:39:38;;;;;;;12.80;11.48;;;;;;;;;;1735039;28;20207;-85
2024/01/31 10:40:33;;;;;;;13.13;11.68;;;;;;;;;;1735326;28;20208;-82
2024/01/31 10:41:25;;;;;;;13.60;11.80;;;;;;;;;;1734699;28;20215;-82
2024/01/31 10:42:18;;;;;;;13.02;11.00;;;;;;;;;;1735511;28;20291;-84
2024/01/31 10:43:09;;;;;;;16.50;12.10;;;;;;;;;;1735651;28;20200;-83
2024/01/31 10:44:03;;;;;;;11.60;10.50;;;;;;;;;;1735283;28;20228;-82
2024/01/31 10:44:56;;;;;;;17.55;12.02;;;;;;;;;;1735289;28;20196;-81
2024/01/31 10:45:47;;;;;;;13.15;11.23;;;;;;;;;;1735606;28;20703;-83
2024/01/31 10:46:39;;;;;;;11.77;10.57;;;;;;;;;;1735293;28;20196;-82
2024/01/31 10:47:32;;;;;;;12.98;10.68;;;;;;;;;;1735350;28;20204;-82
2024/01/31 10:48:23;;;;;;;13.40;12.02;;;;;;;;;;1735363;28;20227;-82
2024/01/31 10:49:16;;;;;;;12.05;10.95;;;;;;;;;;1735556;28;20230;-81
2024/01/31 10:50:08;;;;;;;14.45;12.32;;;;;;;;;;1734905;28;20200;-81
2024/01/31 10:51:00;;;;;;;13.70;11.20;;;;;;;;;;1734836;28;20200;-90
2024/01/31 10:51:54;;;;;;;12.00;10.40;;;;;;;;;;1735720;28;20196;-81
2024/01/31 10:52:46;;;;;;;13.55;10.48;;;;;;;;;;1735424;28;20230;-82
2024/01/31 10:53:38;;;;;;;12.77;11.40;;;;;;;;;;1735468;28;20230;-82
2024/01/31 10:54:33;;;;;;;13.43;10.88;;;;;;;;;;1735210;28;20202;-81
2024/01/31 10:55:24;;;;;;;12.52;11.25;;;;;;;;;;1735444;28;20640;-81
2024/01/31 10:56:18;;;;;;;13.63;12.38;;;;;;;;;;1735461;28;20257;-82
2024/01/31 10:57:10;;;;;;;13.27;11.95;;;;;;;;;;1728530;28;20229;-82
2024/01/31 10:58:02;;;;;;;13.05;11.75;;;;;;;;;;1728841;28;20211;-85
2024/01/31 10:58:56;;;;;;;12.65;11.35;;;;;;;;;;1734604;28;20208;-83
2024/01/31 10:59:49;;;;;;;14.88;11.30;;;;;;;;;;1735331;28;20203;-83
2024/01/31 11:00:46;;;;;;;12.07;10.98;;;;;;;;;;1735252;28;20223;-82
2024/01/31 11:01:37;;;;;;;17.67;12.43;;;;;;;;;;1734783;28;20581;-82
2024/01/31 11:02:29;;;;;;;12.85;11.20;;;;;;;;;;1735565;28;20215;-82
2024/01/31 11:03:23;;;;;;;12.88;11.05;;;;;;;;;;1735495;28;20226;-83
2024/01/31 11:04:14;;;;;;;12.18;10.98;;;;;;;;;;1735019;28;20228;-82
2024/01/31 11:05:06;;;;;;;12.05;10.95;;;;;;;;;;1735107;28;20192;-82
2024/01/31 11:05:57;;;;;;;12.13;11.05;;;;;;;;;;1735185;28;20200;-82